CDT,Max TemperatureF,Mean TemperatureF,Min TemperatureF,Max Dew PointF,MeanDew PointF,Min DewpointF,Max Humidity, Mean Humidity, Min Humidity, Max Sea Level PressureIn, Mean Sea Level PressureIn, Min Sea Level PressureIn, Max VisibilityMiles, Mean VisibilityMiles, Min VisibilityMiles, Max Wind SpeedMPH, Mean Wind SpeedMPH, Max Gust SpeedMPH,PrecipitationIn, CloudCover, Events, WindDirDegrees
2012-10-1,66,52,37,48,42,32,100,63,30,29.99,29.95,29.86,10,10,10,14,5,24,0.00,0,,313
2012-10-2,69,48,28,46,34,28,100,64,26,29.97,29.87,29.76,10,10,3,17,4,23,0.00,0,,164
2012-10-3,73,53,33,45,39,32,100,65,27,29.90,29.86,29.82,10,10,5,9,2,,0.00,0,,31
2012-10-4,53,44,35,43,36,28,93,80,67,30.00,29.81,29.59,10,9,2,22,11,34,0.00,6,Rain-Snow-Thunderstorm,281
2012-10-5,37,35,33,32,29,27,93,78,65,30.13,30.03,29.98,10,8,1,22,15,33,0.06,8,Snow,287
2012-10-6,44,34,23,32,27,21,100,77,46,30.28,30.21,30.13,10,9,2,10,4,16,0.02,4,Snow,320
2012-10-7,53,38,23,27,24,19,93,65,28,30.15,29.95,29.77,10,10,10,12,5,22,0.00,0,,211
2012-10-8,46,37,28,45,33,21,100,76,52,29.76,29.62,29.51,10,10,3,13,4,24,0.07,5,Rain,189
2012-10-9,41,37,33,37,32,21,93,78,52,29.93,29.74,29.63,10,10,5,18,7,25,0.00,5,Rain-Snow,268
2012-10-10,46,37,28,34,28,25,100,74,46,30.00,29.95,29.90,10,9,1,14,6,20,0.19,4,Rain-Snow,259
2012-10-11,42,34,24,34,27,21,100,74,42,30.35,30.12,29.88,10,10,2,14,4,23,0.01,3,,309
2012-10-12,48,32,17,30,20,16,100,63,29,30.39,30.23,29.92,10,10,10,16,4,24,0.00,2,,159
2012-10-13,57,45,33,45,35,19,100,64,34,29.91,29.75,29.67,10,10,4,14,8,17,0.00,4,,141
2012-10-14,55,44,32,45,37,32,100,80,50,29.89,29.83,29.78,10,7,0,9,2,,0.00,4,Fog,320
2012-10-15,57,42,26,41,34,25,100,72,48,29.91,29.82,29.64,10,9,0,12,3,18,0.00,2,Fog-Rain,165
2012-10-16,71,56,42,48,45,37,100,71,40,29.63,29.48,29.34,10,10,10,9,5,,0.02,2,Rain,173
2012-10-17,51,48,44,50,46,43,100,94,82,29.34,29.18,29.06,10,8,2,12,3,18,0.09,6,Rain,175
2012-10-18,46,44,42,46,44,41,100,97,87,29.41,29.23,29.16,10,7,2,9,2,,0.13,8,Rain,225
2012-10-19,50,47,44,48,46,43,100,97,93,29.72,29.61,29.42,10,8,2,9,3,,0.40,8,Rain,330
2012-10-20,51,46,41,45,43,39,100,90,71,29.76,29.73,29.71,10,9,0,12,3,16,0.00,7,Fog,163
2012-10-21,60,50,39,46,44,39,100,81,52,29.97,29.83,29.76,10,9,2,8,4,,0.00,2,Rain,106
2012-10-22,57,50,44,46,43,39,93,81,59,30.07,30.01,29.93,10,10,10,9,6,17,0.00,4,,51
2012-10-23,50,47,46,48,46,43,100,95,87,29.92,29.77,29.69,10,4,1,8,5,,0.03,8,Rain-Thunderstorm,111
2012-10-24,51,45,39,52,44,36,100,92,81,29.92,29.86,29.74,10,9,1,9,3,,0.00,7,Rain,317
2012-10-25,39,36,33,36,29,25,100,80,65,30.01,29.88,29.83,10,9,2,16,8,25,0.07,7,Rain-Snow,304
2012-10-26,35,32,30,27,21,18,80,62,48,30.25,30.19,30.02,10,10,10,17,10,26,0.00,7,Snow,264
2012-10-27,37,30,24,27,21,16,93,67,44,30.29,30.27,30.24,10,10,7,10,4,,0.00,6,,262
2012-10-28,33,30,28,32,29,23,100,91,75,30.29,30.26,30.24,10,7,0,8,2,,0.07,7,Snow,38
2012-10-29,46,36,26,30,27,23,93,72,43,30.28,30.25,30.23,10,10,10,13,2,20,0.00,4,,135
2012-10-30,42,32,21,34,28,21,100,87,61,30.25,30.19,30.09,10,9,2,6,1,,0.00,1,,82
2012-10-31,48,32,17,32,23,16,100,73,32,30.10,30.00,29.92,10,10,10,6,0,,0.00,1,,327